Time;durP1;ratioP1;P1;durP2;ratioP2;P2;SDS_P1;SDS_P2;PMS_P1;PMS_P2;Temp;Humidity;BMP_temperature;BMP_pressure;BME280_temperature;BME280_humidity;BME280_pressure;Samples;Min_cycle;Max_cycle;Signal;HPM_P1;HPM_P2
2022/02/03 00:04:06;;;;;;;10.30;3.63;;;5.30;99.90;;;;;;10381423;28;20076;-62
2022/02/03 00:09:53;;;;;;;17.42;3.78;;;5.30;99.90;;;;;;10379730;28;20142;-62
2022/02/03 00:25:33;;;;;;;15.05;4.68;;;5.50;99.90;;;;;;10377616;28;20068;-61
2022/02/03 00:31:02;;;;;;;21.90;4.43;;;5.60;99.90;;;;;;10381898;28;20037;-62
2022/02/03 00:51:51;;;;;;;14.27;4.30;;;5.70;99.90;;;;;;10384513;28;20072;-61
2022/02/03 00:57:00;;;;;;;9.60;3.92;;;5.80;99.90;;;;;;10390387;28;20135;-61
2022/02/03 01:02:05;;;;;;;11.93;3.22;;;5.80;99.90;;;;;;10382328;28;20076;-61
2022/02/03 01:07:18;;;;;;;14.38;3.67;;;5.90;99.90;;;;;;10388566;28;20073;-60
2022/02/03 01:17:44;;;;;;;17.02;3.42;;;5.90;99.90;;;;;;10384099;28;20045;-60
2022/02/03 01:44:26;;;;;;;15.93;4.13;;;6.10;99.90;;;;;;10388740;28;20064;-61
2022/02/03 01:51:40;;;;;;;9.05;3.92;;;6.10;99.90;;;;;;10387418;28;20068;-62
2022/02/03 01:54:55;;;;;;;11.13;3.75;;;6.20;99.90;;;;;;10380500;28;20104;-61
2022/02/03 02:00:04;;;;;;;16.92;3.65;;;6.20;99.90;;;;;;10384711;28;20068;-61
2022/02/03 02:05:16;;;;;;;13.50;4.32;;;6.10;99.90;;;;;;10381498;28;20053;-62
2022/02/03 02:37:50;;;;;;;22.45;6.05;;;5.90;99.90;;;;;;10384274;28;20100;-62
2022/02/03 02:43:24;;;;;;;18.38;5.95;;;5.90;99.90;;;;;;10381925;28;20503;-62
2022/02/03 02:48:58;;;;;;;14.80;6.35;;;5.90;99.90;;;;;;10386925;28;20504;-62
2022/02/03 02:54:31;;;;;;;15.30;5.75;;;5.90;99.90;;;;;;10377948;28;20097;-62
2022/02/03 03:33:08;;;;;;;21.60;6.90;;;6.10;99.90;;;;;;10382129;28;20057;-61
2022/02/03 03:37:59;;;;;;;25.75;7.47;;;6.10;99.90;;;;;;10375513;28;20433;-61
2022/02/03 03:43:05;;;;;;;18.98;7.97;;;6.20;99.90;;;;;;10386189;28;20146;-62
2022/02/03 03:48:07;;;;;;;21.98;7.25;;;6.20;99.90;;;;;;10373590;28;20104;-61
2022/02/03 03:53:18;;;;;;;21.00;7.82;;;6.20;99.90;;;;;;10380449;28;20128;-62
2022/02/03 05:04:37;;;;;;;30.52;9.32;;;6.50;99.90;;;;;;10385065;28;20127;-61
2022/02/03 05:10:34;;;;;;;29.17;10.07;;;6.50;99.90;;;;;;10387207;28;20156;-62
2022/02/03 05:43:55;;;;;;;34.80;11.85;;;6.60;99.90;;;;;;10387903;28;20132;-61
2022/02/03 06:15:36;;;;;;;33.72;11.27;;;6.80;99.90;;;;;;10393465;28;20056;-61
2022/02/03 06:20:56;;;;;;;40.22;13.48;;;6.80;99.90;;;;;;10380751;28;20075;-61
2022/02/03 06:31:18;;;;;;;39.53;11.98;;;6.90;99.90;;;;;;10378536;28;20612;-61
2022/02/03 06:36:21;;;;;;;30.48;11.73;;;6.90;99.90;;;;;;10379306;28;20057;-61
2022/02/03 06:41:23;;;;;;;29.38;11.35;;;7.00;99.90;;;;;;10382964;28;20722;-61
2022/02/03 06:46:26;;;;;;;28.63;10.77;;;7.00;99.90;;;;;;10381354;28;20102;-61
2022/02/03 06:51:33;;;;;;;34.20;10.77;;;7.00;99.90;;;;;;10377769;28;20140;-61
2022/02/03 06:56:48;;;;;;;32.20;10.48;;;7.00;99.90;;;;;;10384829;28;21123;-64
2022/02/03 07:01:50;;;;;;;26.02;8.75;;;7.00;99.90;;;;;;10375851;28;20072;-64
2022/02/03 07:06:52;;;;;;;23.88;9.50;;;7.10;99.90;;;;;;10385447;28;20409;-64
2022/02/03 07:11:53;;;;;;;28.25;9.75;;;7.20;99.90;;;;;;10378549;28;20079;-64
2022/02/03 07:16:56;;;;;;;24.73;9.57;;;7.20;99.90;;;;;;10384410;28;20542;-64
2022/02/03 07:21:58;;;;;;;24.15;8.80;;;7.30;99.90;;;;;;10375767;28;20045;-61
2022/02/03 07:27:00;;;;;;;24.45;9.75;;;7.30;99.90;;;;;;10379279;28;20057;-61
2022/02/03 07:32:02;;;;;;;24.15;8.52;;;7.30;99.90;;;;;;10387446;28;20093;-64
2022/02/03 07:37:04;;;;;;;19.25;8.10;;;7.40;99.90;;;;;;10378262;28;20312;-64
2022/02/03 07:42:06;;;;;;;24.55;9.43;;;7.40;99.90;;;;;;10381788;28;20073;-64
2022/02/03 07:47:07;;;;;;;24.50;9.02;;;7.50;99.90;;;;;;10383575;28;20436;-64
2022/02/03 07:52:09;;;;;;;24.92;9.95;;;7.60;99.90;;;;;;10379329;28;20080;-64
2022/02/03 07:57:11;;;;;;;19.85;8.73;;;7.60;99.90;;;;;;10379410;28;20136;-64
2022/02/03 08:02:12;;;;;;;21.35;8.93;;;7.60;99.90;;;;;;10375756;28;20073;-64
2022/02/03 08:07:17;;;;;;;18.52;6.97;;;7.70;99.90;;;;;;10383944;28;20123;-65
2022/02/03 08:12:22;;;;;;;15.98;6.68;;;7.70;99.90;;;;;;10376915;28;20069;-64
2022/02/03 08:17:33;;;;;;;10.02;5.43;;;7.70;99.90;;;;;;10376474;28;20105;-64
2022/02/03 08:22:44;;;;;;;13.60;6.25;;;7.80;99.90;;;;;;10384679;28;20510;-64
2022/02/03 08:28:04;;;;;;;13.55;5.60;;;7.80;99.90;;;;;;10381074;28;20053;-64
2022/02/03 08:33:15;;;;;;;14.10;5.93;;;7.80;99.90;;;;;;10375826;28;20380;-64
2022/02/03 08:38:33;;;;;;;15.07;5.88;;;7.90;99.90;;;;;;10376392;28;20128;-64
2022/02/03 08:43:36;;;;;;;13.55;4.97;;;8.00;99.90;;;;;;10383471;28;20215;-64
2022/02/03 08:48:38;;;;;;;15.35;5.82;;;8.00;99.90;;;;;;10380744;28;20103;-64
2022/02/03 08:53:50;;;;;;;13.10;4.30;;;8.10;99.90;;;;;;10384079;28;20065;-65
2022/02/03 09:36:41;;;;;;;12.85;3.85;;;8.20;99.90;;;;;;10383155;28;20049;-66
2022/02/03 09:57:40;;;;;;;8.80;3.70;;;8.30;99.90;;;;;;10382851;28;20077;-66
2022/02/03 10:02:58;;;;;;;8.35;3.58;;;8.50;99.90;;;;;;10382928;28;20065;-66
2022/02/03 10:07:59;;;;;;;;;;;8.60;99.90;;;;;;10383123;28;20034;-66
2022/02/03 10:13:22;;;;;;;6.65;2.15;;;8.60;99.90;;;;;;10378373;28;20434;-66
2022/02/03 10:18:29;;;;;;;8.90;2.22;;;8.70;99.90;;;;;;10382593;28;20538;-66
2022/02/03 10:23:32;;;;;;;5.82;2.42;;;8.70;99.90;;;;;;10383756;28;20103;-66
2022/02/03 10:28:36;;;;;;;6.22;2.28;;;8.80;99.90;;;;;;10391348;28;20049;-66
2022/02/03 10:33:40;;;;;;;7.43;1.73;;;8.80;99.90;;;;;;10378212;28;20083;-66
2022/02/03 10:39:25;;;;;;;4.22;1.38;;;8.80;99.90;;;;;;10386137;28;20103;-66
2022/02/03 10:55:45;;;;;;;3.67;1.50;;;8.80;99.90;;;;;;10378441;28;20052;-66
2022/02/03 11:01:14;;;;;;;6.47;2.90;;;8.90;99.90;;;;;;10379558;28;20138;-66
2022/02/03 11:06:31;;;;;;;4.15;1.10;;;8.80;99.90;;;;;;10378849;28;20080;-66
2022/02/03 11:11:40;;;;;;;;;;;8.90;99.90;;;;;;10381029;28;20087;-66
2022/02/03 11:16:42;;;;;;;1.83;1.10;;;8.70;99.90;;;;;;10380468;28;20007;-66
2022/02/03 11:21:49;;;;;;;4.72;1.90;;;8.60;99.90;;;;;;10378283;28;20131;-66
2022/02/03 11:32:40;;;;;;;5.30;1.75;;;8.60;99.90;;;;;;10379567;28;20073;-66
2022/02/03 11:49:39;;;;;;;1.58;1.10;;;9.00;99.90;;;;;;10377810;28;20064;-67
2022/02/03 12:05:55;;;;;;;4.43;0.60;;;9.10;99.90;;;;;;10378818;28;20049;-66
2022/02/03 12:21:33;;;;;;;4.03;0.63;;;9.20;99.90;;;;;;10378237;28;20100;-66
2022/02/03 12:26:45;;;;;;;1.70;0.55;;;9.20;99.90;;;;;;10377409;28;20136;-66
2022/02/03 12:37:11;;;;;;;0.95;0.55;;;9.10;99.90;;;;;;10383604;28;20462;-66
2022/02/03 12:42:21;;;;;;;1.63;0.60;;;9.20;99.90;;;;;;10387564;28;20163;-66
2022/02/03 12:47:24;;;;;;;1.83;0.40;;;9.10;99.90;;;;;;10383571;28;20088;-65
2022/02/03 12:52:27;;;;;;;1.90;0.50;;;9.10;99.90;;;;;;10386750;28;20072;-66
2022/02/03 12:57:32;;;;;;;1.38;0.60;;;9.00;99.90;;;;;;10384100;28;20108;-65
2022/02/03 13:02:34;;;;;;;1.45;0.73;;;9.10;99.90;;;;;;10390191;28;20081;-66
2022/02/03 13:07:36;;;;;;;7.85;2.13;;;9.10;99.90;;;;;;10385190;28;20069;-65
2022/02/03 13:12:47;;;;;;;4.22;0.60;;;9.10;99.90;;;;;;10386850;28;20145;-65
2022/02/03 13:17:57;;;;;;;0.60;0.30;;;9.20;99.90;;;;;;10386372;28;20111;-66
2022/02/03 13:23:01;;;;;;;0.40;0.30;;;9.20;99.90;;;;;;10392722;28;20440;-65
2022/02/03 13:28:19;;;;;;;0.63;0.32;;;9.30;99.90;;;;;;10387025;28;20071;-65
2022/02/03 13:33:30;;;;;;;2.03;0.30;;;9.30;99.90;;;;;;10379472;28;20085;-66
2022/02/03 13:38:54;;;;;;;1.80;0.55;;;9.30;99.90;;;;;;10384250;28;20080;-66
2022/02/03 13:44:03;;;;;;;3.33;0.38;;;9.20;99.90;;;;;;10381765;28;20136;-66
2022/02/03 13:49:14;;;;;;;2.25;0.50;;;9.20;99.90;;;;;;10378320;28;20119;-66
2022/02/03 13:54:54;;;;;;;0.65;0.40;;;9.20;99.90;;;;;;10383540;28;20552;-66
2022/02/03 14:16:21;;;;;;;1.38;0.50;;;9.20;99.90;;;;;;10381454;28;21054;-66
2022/02/03 14:21:28;;;;;;;2.60;1.17;;;9.20;99.90;;;;;;10377853;28;20132;-66
2022/02/03 14:32:05;;;;;;;4.20;1.13;;;9.10;99.90;;;;;;10378632;28;20028;-66
2022/02/03 14:37:24;;;;;;;1.23;0.57;;;9.10;99.90;;;;;;10382156;28;20606;-66
2022/02/03 14:42:30;;;;;;;1.67;0.60;;;9.00;99.90;;;;;;10381825;28;20064;-66
2022/02/03 14:47:33;;;;;;;2.35;0.60;;;9.00;99.90;;;;;;10381258;28;20220;-67
2022/02/03 14:52:54;;;;;;;2.03;0.70;;;9.00;99.90;;;;;;10373394;28;20076;-67
2022/02/03 14:58:02;;;;;;;2.00;0.80;;;9.00;99.90;;;;;;10381084;28;20083;-67
2022/02/03 15:03:04;;;;;;;3.70;0.80;;;9.00;99.90;;;;;;10376877;28;20250;-65
2022/02/03 15:08:16;;;;;;;6.40;0.82;;;9.00;99.90;;;;;;10385880;28;20072;-66
2022/02/03 15:18:23;;;;;;;2.05;1.13;;;8.90;99.90;;;;;;10381064;28;20053;-67
2022/02/03 15:23:25;;;;;;;3.88;1.42;;;8.80;99.90;;;;;;10384312;28;20300;-67
2022/02/03 15:28:26;;;;;;;2.90;1.25;;;8.80;99.90;;;;;;10378496;28;20134;-66
2022/02/03 15:33:28;;;;;;;3.72;1.65;;;8.70;99.90;;;;;;10379124;28;20045;-65
2022/02/03 15:38:37;;;;;;;2.92;1.23;;;8.70;99.90;;;;;;10380633;28;20041;-66
2022/02/03 15:43:41;;;;;;;3.70;1.50;;;8.60;99.90;;;;;;10377433;28;20123;-66
2022/02/03 15:48:55;;;;;;;4.47;2.25;;;8.50;99.90;;;;;;10377486;28;20045;-66
2022/02/03 16:20:59;;;;;;;0.82;0.50;;;8.30;99.90;;;;;;10387233;28;20449;-66
2022/02/03 16:26:38;;;;;;;2.08;0.90;;;8.20;99.90;;;;;;10389548;28;20050;-65
2022/02/03 16:52:49;;;;;;;1.75;0.60;;;8.00;99.90;;;;;;10384654;28;20151;-61
2022/02/03 16:57:56;;;;;;;3.00;0.73;;;8.00;99.90;;;;;;10382339;28;20042;-59
2022/02/03 17:02:59;;;;;;;1.30;0.30;;;8.00;99.90;;;;;;10388375;28;20065;-59
2022/02/03 17:08:01;;;;;;;0.47;0.40;;;7.90;99.90;;;;;;10383911;28;20111;-60
2022/02/03 17:13:03;;;;;;;0.93;0.43;;;7.90;99.90;;;;;;10388235;28;20107;-59
2022/02/03 17:18:05;;;;;;;1.75;0.50;;;7.90;99.90;;;;;;10385278;28;20111;-60
2022/02/03 17:23:12;;;;;;;1.52;0.70;;;7.80;99.90;;;;;;10381133;28;20175;-60
2022/02/03 17:28:20;;;;;;;0.70;0.40;;;7.80;99.90;;;;;;10386853;28;20130;-59
2022/02/03 18:10:46;;;;;;;1.05;0.50;;;7.80;99.90;;;;;;10379832;28;20053;-59
2022/02/03 18:27:25;;;;;;;1.65;0.50;;;7.70;99.90;;;;;;10384023;28;20073;-59
2022/02/03 18:58:40;;;;;;;1.05;0.70;;;7.70;99.90;;;;;;10342764;28;20132;-60
2022/02/03 20:12:48;;;;;;;4.47;2.10;;;7.40;99.90;;;;;;10375538;28;20080;-60
2022/02/03 20:17:50;;;;;;;6.20;1.45;;;7.40;99.90;;;;;;10377703;28;21024;-62
2022/02/03 20:22:52;;;;;;;3.13;1.17;;;7.40;99.90;;;;;;10382222;28;20115;-60
2022/02/03 20:27:54;;;;;;;4.35;1.40;;;7.40;99.90;;;;;;10379629;28;20057;-60
2022/02/03 20:32:56;;;;;;;2.80;1.00;;;7.40;99.90;;;;;;10383991;28;20059;-61
2022/02/03 20:37:58;;;;;;;2.65;1.20;;;7.40;99.90;;;;;;10378640;28;20038;-60
2022/02/03 20:43:00;;;;;;;3.58;1.27;;;7.40;99.90;;;;;;10376884;28;20104;-61
2022/02/03 20:48:02;;;;;;;2.83;1.20;;;7.40;99.90;;;;;;10380287;28;20049;-59
2022/02/03 20:53:06;;;;;;;2.47;1.17;;;7.40;99.90;;;;;;10384331;28;20073;-62
2022/02/03 20:58:11;;;;;;;4.25;1.40;;;7.40;99.90;;;;;;10388412;28;20510;-60
2022/02/03 21:03:23;;;;;;;3.17;1.20;;;7.40;99.90;;;;;;10387461;28;20135;-60
2022/02/03 21:08:33;;;;;;;4.93;1.83;;;7.40;99.90;;;;;;10383148;28;20120;-63
2022/02/03 21:13:35;;;;;;;4.45;1.50;;;7.30;99.90;;;;;;10387114;28;20046;-60
2022/02/03 21:18:41;;;;;;;5.10;1.15;;;7.30;99.90;;;;;;10386199;28;20128;-60
2022/02/03 21:23:42;;;;;;;3.60;1.25;;;7.30;99.90;;;;;;10388838;28;20552;-60
2022/02/03 21:28:49;;;;;;;4.93;1.50;;;7.20;99.90;;;;;;10390002;28;20061;-61
2022/02/03 21:33:55;;;;;;;5.28;1.15;;;7.20;99.90;;;;;;10383660;28;20049;-60
2022/02/03 21:38:56;;;;;;;4.60;1.98;;;7.10;99.90;;;;;;10390242;28;20130;-60
2022/02/03 21:43:58;;;;;;;4.35;1.70;;;7.10;99.90;;;;;;10381867;28;20072;-60
2022/02/03 21:49:00;;;;;;;3.17;1.70;;;7.10;99.90;;;;;;10389794;28;20095;-60
2022/02/03 21:54:03;;;;;;;4.72;1.90;;;7.10;99.90;;;;;;10380176;28;20072;-60
2022/02/03 21:59:08;;;;;;;5.68;1.95;;;7.10;99.90;;;;;;10381963;28;20142;-63
2022/02/03 22:04:10;;;;;;;4.47;1.90;;;7.10;99.90;;;;;;10384797;28;20111;-61
2022/02/03 22:09:12;;;;;;;3.47;1.65;;;7.10;99.90;;;;;;10385209;28;20065;-62
2022/02/03 22:14:13;;;;;;;2.85;1.60;;;7.10;99.90;;;;;;10375669;28;20053;-61
2022/02/03 22:19:15;;;;;;;4.22;1.30;;;7.10;99.90;;;;;;10384803;28;20554;-61
2022/02/03 22:24:29;;;;;;;2.88;1.20;;;7.10;99.90;;;;;;10383980;28;20054;-60
2022/02/03 22:50:08;;;;;;;5.13;2.15;;;7.10;99.90;;;;;;10386540;28;20088;-59
2022/02/03 22:55:13;;;;;;;4.95;2.25;;;7.00;99.90;;;;;;10379080;28;20765;-60
2022/02/03 23:00:19;;;;;;;5.28;1.85;;;7.00;99.90;;;;;;10384903;28;20088;-60
2022/02/03 23:05:21;;;;;;;5.85;2.10;;;7.00;99.90;;;;;;10381805;28;20600;-60
2022/02/03 23:10:46;;;;;;;5.72;1.90;;;7.00;99.90;;;;;;10380808;28;20111;-62
2022/02/03 23:16:00;;;;;;;6.25;2.03;;;7.00;99.90;;;;;;10380367;28;20152;-59
2022/02/03 23:21:14;;;;;;;4.97;1.77;;;7.00;99.90;;;;;;10383751;28;20108;-60
2022/02/03 23:26:18;;;;;;;6.90;2.10;;;6.90;99.90;;;;;;10382593;28;20069;-60
2022/02/03 23:31:21;;;;;;;8.13;2.90;;;6.90;99.90;;;;;;10383235;28;20451;-59
2022/02/03 23:36:23;;;;;;;5.63;2.30;;;6.90;99.90;;;;;;10382627;28;20557;-60
